createdAt,value
2018-09-19T00:00:05.951Z,42.6
2018-09-19T00:02:05.672Z,42.7
2018-09-19T00:04:05.387Z,42.8
2018-09-19T00:06:05.108Z,42.7
2018-09-19T00:08:13.396Z,42.7
2018-09-19T00:10:07.651Z,42.7
2018-09-19T00:12:05.327Z,42.7
2018-09-19T00:14:05.298Z,42.7
2018-09-19T00:16:05.532Z,42.7
2018-09-19T00:18:05.422Z,42.8
2018-09-19T00:20:05.337Z,42.8
2018-09-19T00:22:05.370Z,42.5
2018-09-19T00:24:05.045Z,42.8
2018-09-19T00:26:05.822Z,42.8
2018-09-19T00:28:05.652Z,42.6
2018-09-19T00:30:05.793Z,42.5
2018-09-19T00:32:05.619Z,42.6
2018-09-19T00:34:05.335Z,42.6
2018-09-19T00:36:05.110Z,42.6
2018-09-19T00:38:05.806Z,42.6
2018-09-19T00:40:05.543Z,42.6
2018-09-19T00:42:12.970Z,42.9
2018-09-19T00:44:05.734Z,42.9
2018-09-19T00:46:05.542Z,42.9
2018-09-19T00:48:05.251Z,42.9
2018-09-19T00:50:06.005Z,43
2018-09-19T00:52:12.822Z,42.9
2018-09-19T00:54:05.678Z,42.9
2018-09-19T00:56:05.408Z,42.9
2018-09-19T00:58:07.635Z,42.8
2018-09-19T01:00:07.875Z,42.8
2018-09-19T01:02:10.646Z,42.8
2018-09-19T01:04:06.038Z,42.8
2018-09-19T01:06:05.785Z,42.8
2018-09-19T01:08:05.479Z,42.8
2018-09-19T01:10:05.178Z,42.8
2018-09-19T01:12:05.896Z,42.8
2018-09-19T01:14:05.682Z,42.8
2018-09-19T01:16:05.911Z,42.8
2018-09-19T01:18:05.765Z,42.8
2018-09-19T01:20:06.046Z,42.8
2018-09-19T01:22:05.737Z,42.8
2018-09-19T01:24:07.985Z,42.8
2018-09-19T01:26:08.276Z,42.9
2018-09-19T01:28:05.936Z,42.9
2018-09-19T01:30:05.617Z,42.9
2018-09-19T01:32:07.931Z,42.9
2018-09-19T01:34:05.738Z,42.9
2018-09-19T01:36:08.012Z,42.8
2018-09-19T01:38:05.226Z,42.7
2018-09-19T01:40:06.056Z,42.8
2018-09-19T01:42:05.737Z,42.8
2018-09-19T01:44:05.469Z,42.8
2018-09-19T01:46:08.247Z,42.8
2018-09-19T01:48:05.972Z,42.8
2018-09-19T01:50:05.763Z,42.9
2018-09-19T01:52:11.100Z,42.8
2018-09-19T01:54:07.884Z,42.8
2018-09-19T01:56:05.556Z,42.8
2018-09-19T01:58:05.228Z,42.7
2018-09-19T02:00:11.062Z,42.7
2018-09-19T02:02:06.012Z,42.7
2018-09-19T02:04:05.774Z,42.7
2018-09-19T02:06:08.067Z,42.7
2018-09-19T02:08:05.438Z,42.7
2018-09-19T02:10:05.164Z,42.5
2018-09-19T02:12:08.482Z,42.6
2018-09-19T02:14:05.143Z,42.6
2018-09-19T02:16:05.905Z,42.7
2018-09-19T02:18:05.836Z,42.7
2018-09-19T02:20:05.687Z,42.6
2018-09-19T02:22:05.442Z,42.7
2018-09-19T02:24:05.145Z,42.7
2018-09-19T02:26:05.930Z,42.7
2018-09-19T02:28:05.678Z,42.7
2018-09-19T02:30:05.414Z,42.6
2018-09-19T02:32:05.126Z,42.6
2018-09-19T02:34:05.812Z,42.5
2018-09-19T02:36:05.616Z,42.6
2018-09-19T02:38:05.380Z,42.5
2018-09-19T02:40:10.194Z,42.3
2018-09-19T02:42:05.917Z,42.3
2018-09-19T02:44:05.261Z,42.4
2018-09-19T02:46:08.016Z,42.4
2018-09-19T02:48:05.769Z,42.4
2018-09-19T02:50:05.047Z,42.4
2018-09-19T02:52:05.748Z,42.4
2018-09-19T02:54:05.442Z,42.4
2018-09-19T02:56:10.197Z,42.4
2018-09-19T02:58:05.888Z,42.4
2018-09-19T03:00:05.642Z,42.4
2018-09-19T03:02:05.338Z,42.5
2018-09-19T03:04:05.058Z,42.5
2018-09-19T03:06:05.330Z,42.3
2018-09-19T03:08:05.119Z,42.3
2018-09-19T03:10:05.954Z,42.3
2018-09-19T03:12:05.689Z,42.4
2018-09-19T03:14:08.529Z,42.4
2018-09-19T03:16:07.776Z,42.5
2018-09-19T03:18:08.223Z,42.6
2018-09-19T03:20:05.536Z,42.4
2018-09-19T03:22:05.785Z,42.5
2018-09-19T03:24:05.560Z,42.5
2018-09-19T03:26:05.474Z,42.6
2018-09-19T03:28:05.204Z,42.9
2018-09-19T03:30:05.917Z,42.8
2018-09-19T03:32:05.223Z,42.7
2018-09-19T03:34:05.505Z,42.7
2018-09-19T03:36:12.850Z,42.8
2018-09-19T03:38:08.090Z,42.9
2018-09-19T03:40:13.350Z,43
2018-09-19T03:42:05.046Z,43.2
2018-09-19T03:44:05.749Z,43
2018-09-19T03:46:05.450Z,43.1
2018-09-19T03:48:07.800Z,43.3
2018-09-19T03:50:05.599Z,43.4
2018-09-19T03:52:05.301Z,43.5
2018-09-19T03:54:08.530Z,43.5
2018-09-19T03:56:05.262Z,43.5
2018-09-19T03:58:08.177Z,43.6
2018-09-19T04:00:05.164Z,43.9
2018-09-19T04:02:05.982Z,43.9
2018-09-19T04:04:07.801Z,44
2018-09-19T04:06:05.580Z,44.1
2018-09-19T04:08:07.986Z,44.1
2018-09-19T04:10:05.873Z,44.1
2018-09-19T04:12:05.611Z,44.2
2018-09-19T04:14:05.475Z,44.3
2018-09-19T04:16:05.313Z,44.2
2018-09-19T04:18:07.764Z,44.2
2018-09-19T04:20:05.519Z,44.3
2018-09-19T04:22:05.238Z,44.2
2018-09-19T04:24:05.917Z,44.3
2018-09-19T04:26:05.631Z,44.5
2018-09-19T04:28:05.324Z,44.5
2018-09-19T04:30:05.027Z,44.5
2018-09-19T04:32:05.823Z,44.5
2018-09-19T04:34:13.464Z,44.6
2018-09-19T04:36:05.086Z,45.2
2018-09-19T04:38:05.841Z,44.6
2018-09-19T04:40:10.597Z,44.7
2018-09-19T04:42:05.317Z,44.6
2018-09-19T04:44:05.087Z,44.7
2018-09-19T04:46:05.766Z,44.7
2018-09-19T04:48:05.485Z,44.7
2018-09-19T04:50:05.778Z,44.8
2018-09-19T04:52:05.582Z,44.8
2018-09-19T04:54:05.959Z,44.8
2018-09-19T04:56:05.615Z,44.9
2018-09-19T04:58:05.313Z,44.9
2018-09-19T05:00:07.542Z,44.9
2018-09-19T05:02:05.245Z,44.9
2018-09-19T05:04:05.991Z,44.8
2018-09-19T05:06:05.804Z,44.9
2018-09-19T05:08:05.620Z,45
2018-09-19T05:10:05.452Z,44.9
2018-09-19T05:12:05.337Z,45
2018-09-19T05:14:08.149Z,45.2
2018-09-19T05:16:08.385Z,44.9
2018-09-19T05:18:05.265Z,44.9
2018-09-19T05:20:06.021Z,45
2018-09-19T05:22:05.862Z,45.3
2018-09-19T05:24:05.575Z,45.2
2018-09-19T05:26:05.253Z,45.2
2018-09-19T05:28:11.080Z,45.3
2018-09-19T05:30:05.771Z,45.3
2018-09-19T05:32:08.007Z,45.2
2018-09-19T05:34:05.779Z,45.1
2018-09-19T05:36:05.527Z,45.2
2018-09-19T05:38:07.873Z,45.5
2018-09-19T05:40:08.088Z,45.3
2018-09-19T05:42:05.772Z,45.3
2018-09-19T05:44:08.019Z,45.4
2018-09-19T05:46:10.808Z,45.4
2018-09-19T05:48:10.560Z,45.4
2018-09-19T05:50:10.340Z,45.4
2018-09-19T05:52:05.068Z,45.4
2018-09-19T05:54:05.769Z,45.4
2018-09-19T05:56:10.542Z,45.4
2018-09-19T05:58:05.233Z,45.4
2018-09-19T06:00:08.439Z,45.4
2018-09-19T06:02:05.662Z,45.4
2018-09-19T06:04:05.396Z,45.4
2018-09-19T06:06:05.198Z,45.7
2018-09-19T06:08:05.996Z,45.7
2018-09-19T06:10:05.686Z,45.7
2018-09-19T06:12:05.917Z,45.7
2018-09-19T06:14:05.669Z,45.7
2018-09-19T06:16:05.349Z,45.7
2018-09-19T06:18:05.187Z,45.7
2018-09-19T06:20:08.440Z,45.9
2018-09-19T06:22:05.157Z,45.8
2018-09-19T06:24:05.887Z,46.1
2018-09-19T06:26:08.112Z,46
2018-09-19T06:28:05.810Z,45.9
2018-09-19T06:30:05.485Z,46.2
2018-09-19T06:32:10.379Z,46.3
2018-09-19T06:34:05.072Z,46.2
2018-09-19T06:36:08.293Z,46.5
2018-09-19T06:38:07.657Z,46.5
2018-09-19T06:40:13.249Z,46.5
2018-09-19T06:42:08.013Z,46.6
2018-09-19T06:44:05.821Z,46.6
2018-09-19T06:46:10.646Z,46.4
2018-09-19T06:48:05.631Z,46.3
2018-09-19T06:50:06.933Z,46.7
2018-09-19T06:52:05.882Z,46.7
2018-09-19T06:54:06.002Z,46.5
2018-09-19T06:56:08.316Z,46.7
2018-09-19T06:58:08.165Z,46.9
2018-09-19T07:00:06.020Z,46.7
2018-09-19T07:02:05.764Z,46.9
2018-09-19T07:04:05.452Z,47
2018-09-19T07:06:05.167Z,47.1
2018-09-19T07:08:05.923Z,47
2018-09-19T07:10:10.678Z,47.2
2018-09-19T07:12:05.378Z,47
2018-09-19T07:14:05.298Z,47.1
2018-09-19T07:16:06.000Z,47.1
2018-09-19T07:18:05.871Z,47.3
2018-09-19T07:20:05.152Z,47.2
2018-09-19T07:22:05.869Z,47
2018-09-19T07:24:05.527Z,47
2018-09-19T07:26:07.805Z,46.8
2018-09-19T07:28:05.270Z,46.8
2018-09-19T07:30:06.121Z,47.2
2018-09-19T07:32:10.919Z,47.1
2018-09-19T07:34:05.439Z,47.1
2018-09-19T07:36:05.316Z,47.3
2018-09-19T07:38:05.073Z,47.1
2018-09-19T07:40:05.994Z,47.3
2018-09-19T07:42:05.377Z,47.2
2018-09-19T07:44:05.186Z,47.5
2018-09-19T07:46:08.568Z,47.3
2018-09-19T07:48:05.487Z,47.3
2018-09-19T07:50:05.190Z,47.2
2018-09-19T07:52:05.856Z,47.3
2018-09-19T07:54:05.622Z,46.9
2018-09-19T07:56:05.851Z,47
2018-09-19T07:58:05.555Z,47.4
2018-09-19T08:00:10.464Z,47.6
2018-09-19T08:02:06.063Z,47.5
2018-09-19T08:04:05.810Z,47.4
2018-09-19T08:06:05.684Z,47.5
2018-09-19T08:08:08.017Z,47.4
2018-09-19T08:10:08.234Z,47.5
2018-09-19T08:12:07.556Z,47.6
2018-09-19T08:14:05.483Z,47.6
2018-09-19T08:16:08.287Z,47.8
2018-09-19T08:18:08.258Z,47.8
2018-09-19T08:20:08.013Z,48
2018-09-19T08:22:05.785Z,48
2018-09-19T08:24:11.061Z,47.6
2018-09-19T08:26:05.868Z,47.5
2018-09-19T08:28:05.607Z,47.7
2018-09-19T08:30:05.529Z,47.8
2018-09-19T08:32:05.230Z,47.8
2018-09-19T08:34:05.893Z,47.6
2018-09-19T08:36:05.620Z,47.5
2018-09-19T08:38:10.370Z,47.6
2018-09-19T08:40:07.596Z,47.6
2018-09-19T08:42:05.390Z,47.5
2018-09-19T08:44:07.764Z,47.8
2018-09-19T08:46:05.448Z,47.6
2018-09-19T08:48:08.231Z,47.6
2018-09-19T08:50:05.194Z,47.6
2018-09-19T08:52:11.005Z,47.6
2018-09-19T08:54:05.776Z,47.6
2018-09-19T08:56:05.550Z,47.8
2018-09-19T08:58:07.771Z,48
2018-09-19T09:00:05.494Z,47.8
2018-09-19T09:02:05.740Z,48
2018-09-19T09:04:05.962Z,47.9
2018-09-19T09:06:10.768Z,48
2018-09-19T09:08:05.527Z,48
2018-09-19T09:10:05.224Z,48.1
2018-09-19T09:12:06.033Z,47.7
2018-09-19T09:14:05.898Z,47.7
2018-09-19T09:16:05.738Z,47.4
2018-09-19T09:18:05.608Z,47.5
2018-09-19T09:20:07.941Z,47.6
2018-09-19T09:22:05.695Z,47.6
2018-09-19T09:24:13.026Z,47.4
2018-09-19T09:26:08.015Z,47.5
2018-09-19T09:28:13.069Z,47.5
2018-09-19T09:30:08.288Z,47.6
2018-09-19T09:32:08.541Z,47.4
2018-09-19T09:34:05.315Z,47.4
2018-09-19T09:36:10.226Z,47.4
2018-09-19T09:38:05.971Z,47.4
2018-09-19T09:40:10.996Z,47.3
2018-09-19T09:42:05.767Z,47.3
2018-09-19T09:44:08.123Z,47.1
2018-09-19T09:46:05.544Z,47.1
2018-09-19T09:48:05.689Z,47.1
2018-09-19T09:50:05.481Z,46.9
2018-09-19T09:52:05.437Z,46.9
2018-09-19T09:54:07.714Z,46.7
2018-09-19T09:56:10.532Z,46.6
2018-09-19T09:58:05.263Z,46.4
2018-09-19T10:00:05.939Z,46.6
2018-09-19T10:02:05.664Z,46.5
2018-09-19T10:04:05.390Z,46.6
2018-09-19T10:06:10.147Z,46.5
2018-09-19T10:08:05.865Z,46.5
2018-09-19T10:10:05.564Z,46.6
2018-09-19T10:12:05.349Z,46.5
2018-09-19T10:14:05.031Z,46.4
2018-09-19T10:16:05.773Z,46.7
2018-09-19T10:18:05.673Z,46.4
2018-09-19T10:20:05.406Z,46.3
2018-09-19T10:22:05.235Z,46.2
2018-09-19T10:24:05.932Z,46.2
2018-09-19T10:26:05.650Z,45.9
2018-09-19T10:28:07.912Z,46
2018-09-19T10:30:07.697Z,45.8
2018-09-19T10:32:05.428Z,45.8
2018-09-19T10:34:05.637Z,45.8
2018-09-19T10:36:07.860Z,46.1
2018-09-19T10:38:05.561Z,46.1
2018-09-19T10:40:05.245Z,46.1
2018-09-19T10:42:05.927Z,46.1
2018-09-19T10:44:08.192Z,46.1
2018-09-19T10:46:05.908Z,46.1
2018-09-19T10:48:10.193Z,46.2
2018-09-19T10:50:05.868Z,46.2
2018-09-19T10:52:05.074Z,46.1
2018-09-19T10:54:05.754Z,46.2
2018-09-19T10:56:08.010Z,46.1
2018-09-19T10:58:05.712Z,46.1
2018-09-19T11:00:05.453Z,46.2
2018-09-19T11:02:05.187Z,46.2
2018-09-19T11:04:05.835Z,46.1
2018-09-19T11:06:05.515Z,46.1
2018-09-19T11:08:05.286Z,46.1
2018-09-19T11:10:05.997Z,46.1
2018-09-19T11:12:05.678Z,46.2
2018-09-19T11:14:05.837Z,46.2
2018-09-19T11:16:05.533Z,46
2018-09-19T11:18:05.393Z,45.8
2018-09-19T11:20:05.112Z,46
2018-09-19T11:22:05.768Z,46.3
2018-09-19T11:24:08.085Z,46.4
2018-09-19T11:26:05.846Z,46.4
2018-09-19T11:28:07.634Z,46.8
2018-09-19T11:30:05.506Z,46.7
2018-09-19T11:32:05.226Z,47
2018-09-19T11:34:11.010Z,47.3
2018-09-19T11:36:05.873Z,47.1
2018-09-19T11:38:05.113Z,47.6
2018-09-19T11:40:05.882Z,47.8
2018-09-19T11:42:05.652Z,48
2018-09-19T11:44:05.849Z,48.7
2018-09-19T11:46:05.556Z,48.7
2018-09-19T11:48:05.257Z,48.7
2018-09-19T11:50:08.507Z,48.1
2018-09-19T11:52:05.409Z,48.1
2018-09-19T11:54:05.136Z,48.7
2018-09-19T11:56:05.969Z,48.8
2018-09-19T11:58:08.613Z,48.6
2018-09-19T12:00:05.636Z,48.6
2018-09-19T12:02:06.011Z,48.3
2018-09-19T12:04:05.411Z,48
2018-09-19T12:06:10.167Z,47.6
2018-09-19T12:08:10.545Z,47.3
2018-09-19T12:10:05.297Z,47.3
2018-09-19T12:12:05.789Z,47.2
2018-09-19T12:14:05.504Z,47
2018-09-19T12:16:07.844Z,46.9
2018-09-19T12:18:05.745Z,46.9
2018-09-19T12:20:05.096Z,46.7
2018-09-19T12:22:08.319Z,46.5
2018-09-19T12:24:05.532Z,46.5
2018-09-19T12:26:05.551Z,46.3
2018-09-19T12:28:05.338Z,46.3
2018-09-19T12:30:05.104Z,46.2
2018-09-19T12:32:05.824Z,46.1
2018-09-19T12:34:05.536Z,46.3
2018-09-19T12:36:05.183Z,46.2
2018-09-19T12:38:05.922Z,46
2018-09-19T12:40:05.704Z,46
2018-09-19T12:42:05.435Z,46.1
2018-09-19T12:44:05.320Z,46.1
2018-09-19T12:46:05.976Z,45.9
2018-09-19T12:48:05.669Z,45.9
2018-09-19T12:50:05.945Z,46
2018-09-19T12:52:05.705Z,46
2018-09-19T12:54:11.979Z,46
2018-09-19T12:56:05.820Z,46
2018-09-19T12:58:05.037Z,46.1
2018-09-19T13:00:06.066Z,46.1
2018-09-19T13:02:05.985Z,45.9
2018-09-19T13:04:05.681Z,46
2018-09-19T13:06:05.541Z,45.8
2018-09-19T13:08:05.378Z,45.8
2018-09-19T13:10:05.360Z,45.9
2018-09-19T13:12:05.178Z,45.8
2018-09-19T13:14:05.945Z,45.6
2018-09-19T13:16:05.822Z,45.6
2018-09-19T13:18:05.750Z,45.7
2018-09-19T13:20:05.451Z,45.7
2018-09-19T13:22:05.774Z,45.6
2018-09-19T13:24:05.803Z,45.4
2018-09-19T13:26:05.482Z,45.5
2018-09-19T13:28:05.601Z,45.5
2018-09-19T13:30:05.352Z,45.5
2018-09-19T13:32:05.591Z,45.5
2018-09-19T13:34:05.401Z,45.5
2018-09-19T13:36:10.130Z,45.3
2018-09-19T13:38:06.001Z,45.3
2018-09-19T13:40:05.197Z,45.2
2018-09-19T13:42:08.464Z,45.5
2018-09-19T13:44:05.228Z,45.5
2018-09-19T13:46:05.963Z,45.2
2018-09-19T13:48:05.653Z,45.1
2018-09-19T13:50:05.346Z,45.3
2018-09-19T13:52:10.858Z,45.1
2018-09-19T13:54:05.618Z,45.1
2018-09-19T13:56:05.372Z,45.2
2018-09-19T13:58:05.281Z,45.5
2018-09-19T14:00:06.074Z,45.3
2018-09-19T14:02:05.785Z,45.1
2018-09-19T14:04:05.784Z,45.1
2018-09-19T14:06:05.637Z,45.3
2018-09-19T14:08:05.338Z,45.4
2018-09-19T14:10:05.019Z,45.2
2018-09-19T14:12:05.826Z,45.2
2018-09-19T14:14:05.864Z,45.3
2018-09-19T14:16:05.554Z,45.3
2018-09-19T14:18:05.568Z,45.1
2018-09-19T14:20:07.798Z,45
2018-09-19T14:22:08.524Z,45.2
2018-09-19T14:24:05.235Z,45.2
2018-09-19T14:26:05.931Z,45.2
2018-09-19T14:28:08.147Z,45
2018-09-19T14:30:13.416Z,44.9
2018-09-19T14:32:07.856Z,45
2018-09-19T14:34:05.683Z,45
2018-09-19T14:36:05.355Z,44.5
2018-09-19T14:38:05.129Z,44.3
2018-09-19T14:40:05.803Z,44.3
2018-09-19T14:42:05.495Z,44.4
2018-09-19T14:44:05.453Z,44.5
2018-09-19T14:46:05.149Z,44.6
2018-09-19T14:48:05.945Z,44.5
2018-09-19T14:50:05.617Z,44.7
2018-09-19T14:52:05.320Z,44.4
2018-09-19T14:54:08.655Z,44.4
2018-09-19T14:56:05.448Z,44.5
2018-09-19T14:58:07.754Z,44.2
2018-09-19T15:00:05.716Z,44.2
2018-09-19T15:02:05.390Z,44.4
2018-09-19T15:04:05.142Z,44.5
2018-09-19T15:06:05.849Z,44.6
2018-09-19T15:08:05.548Z,44.6
2018-09-19T15:10:05.311Z,44.7
2018-09-19T15:12:05.984Z,44.9
2018-09-19T15:14:05.694Z,44.8
2018-09-19T15:16:05.419Z,44.9
2018-09-19T15:18:05.494Z,45.1
2018-09-19T15:20:05.303Z,44.8
2018-09-19T15:22:05.460Z,44.8
2018-09-19T15:24:05.256Z,44.8
2018-09-19T15:26:05.955Z,44.7
2018-09-19T15:28:05.667Z,44.8
2018-09-19T15:30:05.437Z,44.7
2018-09-19T15:32:10.144Z,44.7
2018-09-19T15:34:05.858Z,44.7
2018-09-19T15:36:10.275Z,44.7
2018-09-19T15:38:07.888Z,44.7
2018-09-19T15:40:08.151Z,44.5
2018-09-19T15:42:05.851Z,44.5
2018-09-19T15:44:05.550Z,44.6
2018-09-19T15:46:05.261Z,44.7
2018-09-19T15:48:06.040Z,44.4
2018-09-19T15:50:05.749Z,44.6
2018-09-19T15:52:05.493Z,44.4
2018-09-19T15:54:07.777Z,44.2
2018-09-19T15:56:05.522Z,44.2
2018-09-19T15:58:07.732Z,44.1
2018-09-19T16:00:05.399Z,44.2
2018-09-19T16:02:05.316Z,44.4
2018-09-19T16:04:05.119Z,44
2018-09-19T16:06:13.474Z,44.3
2018-09-19T16:08:05.608Z,44.2
2018-09-19T16:10:05.841Z,43.9
2018-09-19T16:12:05.519Z,44.1
2018-09-19T16:14:07.771Z,44.1
2018-09-19T16:16:05.803Z,44
2018-09-19T16:18:05.803Z,43.8
2018-09-19T16:20:08.123Z,44.1
2018-09-19T16:22:05.790Z,43.9
2018-09-19T16:24:08.110Z,43.9
2018-09-19T16:26:08.041Z,43.8
2018-09-19T16:28:06.507Z,43.9
2018-09-19T16:30:07.996Z,43.9
2018-09-19T16:32:08.293Z,43.8
2018-09-19T16:34:07.748Z,43.7
2018-09-19T16:36:05.453Z,43.7
2018-09-19T16:38:05.228Z,43.7
2018-09-19T16:40:08.207Z,43.6
2018-09-19T16:42:05.879Z,43.6
2018-09-19T16:44:05.549Z,43.5
2018-09-19T16:46:08.332Z,43.5
2018-09-19T16:48:05.030Z,43.6
2018-09-19T16:50:05.781Z,43.6
2018-09-19T16:52:05.524Z,43.5
2018-09-19T16:54:08.356Z,43.4
2018-09-19T16:56:10.107Z,43.5
2018-09-19T16:58:05.922Z,43.5
2018-09-19T17:00:05.663Z,43.7
2018-09-19T17:02:07.937Z,43.9
2018-09-19T17:04:05.778Z,43.9
2018-09-19T17:06:05.540Z,44.4
2018-09-19T17:08:07.797Z,45.3
2018-09-19T17:10:05.026Z,45.3
2018-09-19T17:12:08.206Z,45.8
2018-09-19T17:14:05.443Z,45.7
2018-09-19T17:16:05.192Z,45.2
2018-09-19T17:18:05.082Z,45
2018-09-19T17:20:05.755Z,45.1
2018-09-19T17:22:05.459Z,44.8
2018-09-19T17:24:05.174Z,44.6
2018-09-19T17:26:08.388Z,44.3
2018-09-19T17:28:07.593Z,43.2
2018-09-19T17:30:05.269Z,43.1
2018-09-19T17:32:05.972Z,43.4
2018-09-19T17:34:06.697Z,42.9
2018-09-19T17:36:05.415Z,42.5
2018-09-19T17:38:05.155Z,42.4
2018-09-19T17:40:08.451Z,41.6
2018-09-19T17:42:05.421Z,41.7
2018-09-19T17:44:05.664Z,41.8
2018-09-19T17:46:07.881Z,41.8
2018-09-19T17:48:05.171Z,41.7
2018-09-19T17:50:05.097Z,41.6
2018-09-19T17:52:05.844Z,41.4
2018-09-19T17:54:05.546Z,41.6
2018-09-19T17:56:07.746Z,41.5
2018-09-19T17:58:08.045Z,41.3
2018-09-19T18:00:07.944Z,41.2
2018-09-19T18:02:05.681Z,41.3
2018-09-19T18:04:05.420Z,41.3
2018-09-19T18:06:05.262Z,41.1
2018-09-19T18:08:05.209Z,41.3
2018-09-19T18:10:05.976Z,41.3
2018-09-19T18:12:05.679Z,41.3
2018-09-19T18:14:05.359Z,41.2
2018-09-19T18:16:10.117Z,41.3
2018-09-19T18:18:07.852Z,41.3
2018-09-19T18:20:05.537Z,41.4
2018-09-19T18:22:07.983Z,41
2018-09-19T18:24:05.478Z,41
2018-09-19T18:26:07.728Z,40.9
2018-09-19T18:28:07.986Z,40.8
2018-09-19T18:30:05.890Z,40.9
2018-09-19T18:32:05.645Z,40.7
2018-09-19T18:34:05.867Z,40.8
2018-09-19T18:36:10.610Z,40.9
2018-09-19T18:38:05.309Z,40.7
2018-09-19T18:40:08.599Z,40.7
2018-09-19T18:42:05.607Z,40.7
2018-09-19T18:44:05.337Z,40.8
2018-09-19T18:46:12.574Z,41
2018-09-19T18:48:05.275Z,41
2018-09-19T18:50:07.383Z,40.9
2018-09-19T18:52:05.225Z,41
2018-09-19T18:54:06.046Z,41
2018-09-19T18:56:05.819Z,41.2
2018-09-19T18:58:05.527Z,41.1
2018-09-19T19:00:05.940Z,41.2
2018-09-19T19:02:05.582Z,41.2
2018-09-19T19:04:05.433Z,41.3
2018-09-19T19:06:07.918Z,41.3
2018-09-19T19:08:05.380Z,41.4
2018-09-19T19:10:06.361Z,41.5
2018-09-19T19:12:05.036Z,41.6
2018-09-19T19:14:05.831Z,41.6
2018-09-19T19:16:05.796Z,41.6
2018-09-19T19:18:05.732Z,41.6
2018-09-19T19:20:08.125Z,41.6
2018-09-19T19:22:05.914Z,41.6
2018-09-19T19:24:05.651Z,41.6
2018-09-19T19:26:07.761Z,41.7
2018-09-19T19:28:05.520Z,41.7
2018-09-19T19:30:05.437Z,41.7
2018-09-19T19:32:05.249Z,41.6
2018-09-19T19:34:05.994Z,41.5
2018-09-19T19:36:05.697Z,41.5
2018-09-19T19:38:05.614Z,41.4
2018-09-19T19:40:05.646Z,41.2
2018-09-19T19:42:05.363Z,41.4
2018-09-19T19:44:05.050Z,41.1
2018-09-19T19:46:05.786Z,41.3
2018-09-19T19:48:08.035Z,41.4
2018-09-19T19:50:05.764Z,41.4
2018-09-19T19:52:05.463Z,41.4
2018-09-19T19:54:05.120Z,41.3
2018-09-19T19:56:05.891Z,41.2
2018-09-19T19:58:07.705Z,41.3
2018-09-19T20:00:05.897Z,41.3
2018-09-19T20:02:05.575Z,41.3
2018-09-19T20:04:05.365Z,41
2018-09-19T20:06:07.586Z,41.2
2018-09-19T20:08:05.345Z,41.2
2018-09-19T20:10:05.127Z,41.3
2018-09-19T20:12:05.876Z,41.3
2018-09-19T20:14:05.796Z,41.3
2018-09-19T20:16:06.099Z,41.4
2018-09-19T20:18:06.053Z,41.3
2018-09-19T20:20:08.263Z,41.4
2018-09-19T20:22:11.190Z,41.3
2018-09-19T20:24:05.946Z,41.4
2018-09-19T20:26:05.675Z,41.6
2018-09-19T20:28:05.393Z,41.5
2018-09-19T20:30:05.245Z,41.2
2018-09-19T20:32:08.224Z,41.4
2018-09-19T20:34:08.692Z,41.4
2018-09-19T20:36:05.238Z,41.5
2018-09-19T20:38:05.487Z,41.7
2018-09-19T20:40:05.196Z,41.6
2018-09-19T20:42:06.431Z,41.7
2018-09-19T20:44:05.122Z,41.8
2018-09-19T20:46:10.904Z,41.9
2018-09-19T20:48:05.165Z,41.9
2018-09-19T20:50:05.894Z,41.9
2018-09-19T20:52:05.225Z,41.9
2018-09-19T20:54:05.975Z,42
2018-09-19T20:56:05.736Z,42
2018-09-19T20:58:07.995Z,42
2018-09-19T21:00:08.212Z,42.1
2018-09-19T21:02:05.858Z,42
2018-09-19T21:04:06.575Z,41.9
2018-09-19T21:06:05.743Z,42.1
2018-09-19T21:08:08.191Z,42
2018-09-19T21:10:05.116Z,42
2018-09-19T21:12:08.042Z,41.9
2018-09-19T21:14:08.397Z,42.1
2018-09-19T21:16:05.342Z,42
2018-09-19T21:18:05.242Z,42
2018-09-19T21:20:05.942Z,41.9
2018-09-19T21:22:10.707Z,41.9
2018-09-19T21:24:05.987Z,42.1
2018-09-19T21:26:05.693Z,41.9
2018-09-19T21:28:05.399Z,41.9
2018-09-19T21:30:05.624Z,42
2018-09-19T21:32:05.335Z,41.9
2018-09-19T21:34:05.185Z,42
2018-09-19T21:36:05.417Z,41.9
2018-09-19T21:38:05.066Z,42
2018-09-19T21:40:08.356Z,42
2018-09-19T21:42:05.061Z,42.1
2018-09-19T21:44:07.889Z,42.1
2018-09-19T21:46:05.738Z,42.1
2018-09-19T21:48:05.446Z,42.2
2018-09-19T21:50:05.222Z,42.1
2018-09-19T21:52:10.206Z,42
2018-09-19T21:54:05.435Z,42.1
2018-09-19T21:56:05.118Z,42
2018-09-19T21:58:05.413Z,42.1
2018-09-19T22:00:05.198Z,42
2018-09-19T22:02:06.031Z,42
2018-09-19T22:04:08.280Z,42.1
2018-09-19T22:06:10.994Z,41.9
2018-09-19T22:08:05.851Z,41.9
2018-09-19T22:10:05.648Z,41.8
2018-09-19T22:12:05.347Z,42.1
2018-09-19T22:14:05.068Z,41.9
2018-09-19T22:16:05.867Z,42.1
2018-09-19T22:18:05.359Z,41.9
2018-09-19T22:20:10.092Z,42
2018-09-19T22:22:08.873Z,42
2018-09-19T22:24:15.668Z,41.9
2018-09-19T22:26:05.390Z,42.1
2018-09-19T22:28:07.724Z,42
2018-09-19T22:30:05.380Z,42
2018-09-19T22:32:07.611Z,42
2018-09-19T22:34:08.014Z,42.1
2018-09-19T22:36:08.282Z,42.1
2018-09-19T22:38:05.506Z,42.1
2018-09-19T22:40:08.245Z,42.1
2018-09-19T22:42:07.088Z,42.1
2018-09-19T22:44:06.113Z,42.1
2018-09-19T22:46:05.061Z,42.1
2018-09-19T22:48:05.868Z,42
2018-09-19T22:50:10.621Z,41.8
2018-09-19T22:52:05.561Z,41.8
2018-09-19T22:54:07.749Z,41.9
2018-09-19T22:56:05.981Z,41.9
2018-09-19T22:58:05.298Z,42
2018-09-19T23:00:06.045Z,41.9
2018-09-19T23:02:05.730Z,42.1
2018-09-19T23:04:05.556Z,42.1
2018-09-19T23:06:08.469Z,41.8
2018-09-19T23:08:05.284Z,42
2018-09-19T23:10:05.999Z,41.9
2018-09-19T23:12:05.741Z,41.9
2018-09-19T23:14:07.983Z,41.8
2018-09-19T23:16:08.219Z,41.8
2018-09-19T23:18:05.121Z,41.7
2018-09-19T23:20:08.346Z,41.8
2018-09-19T23:22:05.014Z,41.8
2018-09-19T23:24:05.698Z,41.8
2018-09-19T23:26:05.467Z,41.8
2018-09-19T23:28:07.733Z,41.7
2018-09-19T23:30:05.431Z,41.7
2018-09-19T23:32:05.136Z,41.7
2018-09-19T23:34:05.813Z,41.7
2018-09-19T23:36:05.033Z,41.7
2018-09-19T23:38:05.745Z,41.7
2018-09-19T23:40:05.474Z,41.7
2018-09-19T23:42:05.165Z,41.6
2018-09-19T23:44:05.889Z,41.6
2018-09-19T23:46:05.086Z,41.6
2018-09-19T23:48:05.804Z,41.6
2018-09-19T23:50:05.502Z,41.6
2018-09-19T23:52:05.181Z,41.4
2018-09-19T23:54:08.493Z,41.6
2018-09-19T23:56:05.936Z,41.6
2018-09-19T23:58:13.348Z,41.5
